createdAt,value
2019-05-12T00:01:28.646Z,71.06
2019-05-12T00:04:04.973Z,71.27
2019-05-12T00:06:40.926Z,71.57
2019-05-12T00:09:18.784Z,71.44
2019-05-12T00:11:54.572Z,71.67
2019-05-12T00:14:30.744Z,71.95
2019-05-12T00:17:08.221Z,72.29
2019-05-12T00:19:44.292Z,72.85
2019-05-12T00:22:21.887Z,73.19
2019-05-12T00:24:58.374Z,73.63
2019-05-12T00:27:35.849Z,73.82
2019-05-12T00:30:13.534Z,74.23
2019-05-12T00:43:15.995Z,75.07
2019-05-12T00:46:43.831Z,75.04
2019-05-12T00:53:09.111Z,75.19
2019-05-12T00:55:44.323Z,75.70
2019-05-12T00:58:20.292Z,75.85
2019-05-12T01:00:59.305Z,76.14
2019-05-12T01:03:33.817Z,76.50
2019-05-12T01:06:09.820Z,76.62
2019-05-12T01:08:45.750Z,76.64
2019-05-12T01:11:22.010Z,76.67
2019-05-12T01:13:58.363Z,76.84
2019-05-12T01:16:34.547Z,76.95
2019-05-12T01:19:10.503Z,76.88
2019-05-12T01:21:48.148Z,76.76
2019-05-12T01:24:24.658Z,76.71
2019-05-12T01:29:31.584Z,76.62
2019-05-12T01:32:08.953Z,76.97
2019-05-12T01:34:44.901Z,76.86
2019-05-12T01:37:24.957Z,76.79
2019-05-12T01:40:00.908Z,77.12
2019-05-12T01:42:38.191Z,77.22
2019-05-12T01:45:14.789Z,77.36
2019-05-12T01:47:50.835Z,77.76
2019-05-12T01:50:28.258Z,77.71
2019-05-12T01:53:04.581Z,77.75
2019-05-12T01:55:40.525Z,77.76
2019-05-12T01:58:14.659Z,77.92
2019-05-12T02:00:50.614Z,78.25
2019-05-12T02:03:28.369Z,78.61
2019-05-12T02:06:04.771Z,78.82
2019-05-12T02:08:54.349Z,79.20
2019-05-12T02:11:33.378Z,79.35
2019-05-12T02:14:10.574Z,79.46
2019-05-12T02:16:47.750Z,79.64
2019-05-12T02:19:23.920Z,79.76
2019-05-12T02:21:59.876Z,80.18
2019-05-12T02:24:35.935Z,80.27
2019-05-12T02:27:12.505Z,80.35
2019-05-12T02:29:48.449Z,80.32
2019-05-12T02:32:35.605Z,80.73
2019-05-12T02:35:05.775Z,80.97
2019-05-12T02:37:41.043Z,80.81
2019-05-12T02:40:18.535Z,80.72
2019-05-12T02:42:55.024Z,80.71
2019-05-12T02:45:35.131Z,80.41
2019-05-12T02:48:09.783Z,80.28
2019-05-12T02:50:46.361Z,80.00
2019-05-12T02:53:24.796Z,80.05
2019-05-12T02:56:01.018Z,79.70
2019-05-12T02:58:39.333Z,79.47
2019-05-12T03:01:16.119Z,79.34
2019-05-12T03:03:55.067Z,79.36
2019-05-12T03:06:32.119Z,79.33
2019-05-12T03:09:09.711Z,79.10
2019-05-12T03:11:46.599Z,79.22
2019-05-12T03:14:25.271Z,79.09
2019-05-12T03:17:00.755Z,79.08
2019-05-12T03:19:36.708Z,79.02
2019-05-12T03:22:14.180Z,79.25
2019-05-12T03:25:06.531Z,80.08
2019-05-12T03:27:28.176Z,80.32
2019-05-12T03:33:19.722Z,80.09
2019-05-12T03:43:45.111Z,80.67
2019-05-12T03:46:45.366Z,80.12
2019-05-12T03:49:37.851Z,79.46
2019-05-12T03:52:34.711Z,79.17
2019-05-12T03:55:35.436Z,78.79
2019-05-12T03:58:04.773Z,78.90
2019-05-12T04:00:40.694Z,78.88
2019-05-12T04:03:16.699Z,78.77
2019-05-12T04:05:55.385Z,78.66
2019-05-12T04:08:34.480Z,79.02
2019-05-12T04:11:09.057Z,78.74
2019-05-12T04:13:45.425Z,78.96
2019-05-12T04:16:24.397Z,78.93
2019-05-12T04:19:00.481Z,78.71
2019-05-12T04:21:36.408Z,78.51
2019-05-12T04:24:14.244Z,78.27
2019-05-12T04:26:49.986Z,78.19
2019-05-12T04:29:25.865Z,75.95
2019-05-12T04:32:01.781Z,74.01
2019-05-12T04:34:37.737Z,73.93
2019-05-12T04:37:14.825Z,74.12
2019-05-12T04:39:50.918Z,74.71
2019-05-12T04:42:28.082Z,75.46
2019-05-12T04:45:06.901Z,75.95
2019-05-12T04:47:45.000Z,76.32
2019-05-12T04:50:20.694Z,76.82
2019-05-12T04:52:56.580Z,76.99
2019-05-12T04:55:35.420Z,77.07
2019-05-12T04:58:10.130Z,77.02
2019-05-12T05:00:46.087Z,77.19
2019-05-12T05:03:24.712Z,77.09
2019-05-12T05:06:04.259Z,77.30
2019-05-12T05:08:38.763Z,77.62
2019-05-12T05:11:15.020Z,78.20
2019-05-12T05:13:50.940Z,78.29
2019-05-12T05:16:26.861Z,78.90
2019-05-12T05:19:03.780Z,79.73
2019-05-12T05:21:39.811Z,79.65
2019-05-12T05:24:15.710Z,79.89
2019-05-12T05:26:53.757Z,80.77
2019-05-12T05:29:29.301Z,80.50
2019-05-12T05:32:05.182Z,80.68
2019-05-12T05:34:45.991Z,80.82
2019-05-12T05:37:18.734Z,80.94
2019-05-12T05:39:55.035Z,80.70
2019-05-12T05:42:33.422Z,80.71
2019-05-12T05:45:09.884Z,81.03
2019-05-12T05:47:49.066Z,82.44
2019-05-12T05:50:29.482Z,82.89
2019-05-12T05:53:03.769Z,83.53
2019-05-12T05:55:40.069Z,84.18
2019-05-12T05:58:15.953Z,83.43
2019-05-12T06:00:54.743Z,83.52
2019-05-12T06:03:33.682Z,83.82
2019-05-12T06:06:12.357Z,83.85
2019-05-12T06:09:03.718Z,83.96
2019-05-12T06:11:39.390Z,84.33
2019-05-12T06:14:16.264Z,83.41
2019-05-12T06:16:53.756Z,83.87
2019-05-12T06:19:29.874Z,83.88
2019-05-12T06:22:08.920Z,84.08
2019-05-12T06:24:44.216Z,84.10
2019-05-12T06:27:20.950Z,84.01
2019-05-12T06:30:00.883Z,83.89
2019-05-12T06:32:35.076Z,84.58
2019-05-12T06:35:11.237Z,84.83
2019-05-12T06:37:57.356Z,84.84
2019-05-12T06:40:24.894Z,85.42
2019-05-12T06:43:00.834Z,85.17
2019-05-12T06:45:42.116Z,83.73
2019-05-12T06:48:19.485Z,83.11
2019-05-12T06:50:53.488Z,83.83
2019-05-12T06:53:31.037Z,83.36
2019-05-12T06:56:09.420Z,83.92
2019-05-12T06:58:46.314Z,84.49
2019-05-12T07:01:24.224Z,84.68
2019-05-12T07:04:00.655Z,83.95
2019-05-12T07:06:37.557Z,84.69
2019-05-12T07:09:16.220Z,84.60
2019-05-12T07:12:01.539Z,82.70
2019-05-12T07:14:29.020Z,81.81
2019-05-12T07:17:09.572Z,81.48
2019-05-12T07:19:45.529Z,82.59
2019-05-12T07:22:23.375Z,83.31
2019-05-12T07:24:59.188Z,84.04
2019-05-12T07:27:39.319Z,83.33
2019-05-12T07:30:13.756Z,84.06
2019-05-12T07:32:51.198Z,83.89
2019-05-12T07:35:28.633Z,83.25
2019-05-12T07:38:05.173Z,83.64
2019-05-12T07:40:44.320Z,84.76
2019-05-12T07:43:24.122Z,84.87
2019-05-12T07:46:06.811Z,84.90
2019-05-12T07:48:40.391Z,84.80
2019-05-12T07:51:15.121Z,84.17
2019-05-12T07:53:55.338Z,83.11
2019-05-12T07:56:32.943Z,83.81
2019-05-12T07:59:06.373Z,83.77
2019-05-12T08:01:48.650Z,84.28
2019-05-12T08:04:20.033Z,83.81
2019-05-12T08:06:55.990Z,84.30
2019-05-12T08:09:33.003Z,84.57
2019-05-12T08:12:15.282Z,84.53
2019-05-12T08:14:47.338Z,84.54
2019-05-12T08:17:24.651Z,83.70
2019-05-12T08:20:00.788Z,83.58
2019-05-12T08:22:37.226Z,84.85
2019-05-12T08:25:13.616Z,84.57
2019-05-12T08:27:51.988Z,84.20
2019-05-12T08:30:40.234Z,83.98
2019-05-12T08:33:14.605Z,83.60
2019-05-12T08:35:50.349Z,84.63
2019-05-12T08:38:26.314Z,84.73
2019-05-12T08:41:04.297Z,85.11
2019-05-12T08:43:45.838Z,84.19
2019-05-12T08:46:18.173Z,83.97
2019-05-12T08:48:57.833Z,84.84
2019-05-12T08:51:33.914Z,84.02
2019-05-12T08:54:09.511Z,83.63
2019-05-12T08:56:45.467Z,83.54
2019-05-12T08:59:26.500Z,84.80
2019-05-12T09:02:00.560Z,84.63
2019-05-12T09:04:36.824Z,84.00
2019-05-12T09:07:13.926Z,84.61
2019-05-12T09:09:49.972Z,84.74
2019-05-12T09:12:26.131Z,84.82
2019-05-12T09:15:04.318Z,84.97
2019-05-12T09:17:49.258Z,84.33
2019-05-12T09:20:17.584Z,84.97
2019-05-12T09:23:00.540Z,85.01
2019-05-12T09:25:31.227Z,84.66
2019-05-12T09:28:08.319Z,84.60
2019-05-12T09:30:47.629Z,85.00
2019-05-12T09:33:29.621Z,85.21
2019-05-12T09:35:59.877Z,85.31
2019-05-12T09:38:35.833Z,85.12
2019-05-12T09:41:14.001Z,85.29
2019-05-12T09:43:50.540Z,84.77
2019-05-12T09:46:28.439Z,84.62
2019-05-12T09:49:04.370Z,84.10
2019-05-12T09:51:45.170Z,85.18
2019-05-12T09:54:18.124Z,85.04
2019-05-12T09:56:55.463Z,84.71
2019-05-12T09:59:33.513Z,84.64
2019-05-12T10:02:10.576Z,84.78
2019-05-12T10:04:50.279Z,84.76
2019-05-12T10:07:24.751Z,84.44
2019-05-12T10:10:00.828Z,84.36
2019-05-12T10:12:45.039Z,84.46
2019-05-12T10:15:18.863Z,84.46
2019-05-12T10:17:54.011Z,84.76
2019-05-12T10:20:35.417Z,84.10
2019-05-12T10:23:10.307Z,84.19
2019-05-12T10:25:45.367Z,84.07
2019-05-12T10:28:23.625Z,84.35
2019-05-12T10:30:59.209Z,84.00
2019-05-12T10:33:35.151Z,83.59
2019-05-12T10:36:11.028Z,83.74
2019-05-12T10:38:48.028Z,83.82
2019-05-12T10:41:23.898Z,83.49
2019-05-12T10:44:00.009Z,83.07
2019-05-12T10:46:35.934Z,83.65
2019-05-12T10:49:13.849Z,83.14
2019-05-12T10:51:49.456Z,83.65
2019-05-12T10:54:25.391Z,83.63
2019-05-12T10:57:01.324Z,83.30
2019-05-12T10:59:38.853Z,83.58
2019-05-12T11:02:14.919Z,83.33
2019-05-12T11:04:50.827Z,84.20
2019-05-12T11:07:28.201Z,84.82
2019-05-12T11:10:15.375Z,85.11
2019-05-12T11:12:44.391Z,84.97
2019-05-12T11:15:20.294Z,85.08
2019-05-12T11:17:57.772Z,84.90
2019-05-12T11:20:34.561Z,84.49
2019-05-12T11:23:10.530Z,85.31
2019-05-12T11:25:46.488Z,85.28
2019-05-12T11:28:24.497Z,85.72
2019-05-12T11:31:00.799Z,84.95
2019-05-12T11:33:37.093Z,84.71
2019-05-12T11:36:13.540Z,85.52
2019-05-12T11:38:49.561Z,86.01
2019-05-12T11:41:28.458Z,85.92
2019-05-12T11:44:03.973Z,85.39
2019-05-12T11:46:39.901Z,84.75
2019-05-12T11:49:15.834Z,84.67
2019-05-12T11:51:54.050Z,85.70
2019-05-12T11:54:30.403Z,86.14
2019-05-12T11:57:06.474Z,84.97
2019-05-12T11:59:44.677Z,86.18
2019-05-12T12:02:30.287Z,86.25
2019-05-12T12:05:06.850Z,85.54
2019-05-12T12:07:50.589Z,85.49
2019-05-12T12:10:20.363Z,84.96
2019-05-12T12:12:56.262Z,84.87
2019-05-12T12:15:34.233Z,84.69
2019-05-12T12:18:15.122Z,83.87
2019-05-12T12:20:48.262Z,82.92
2019-05-12T12:23:24.154Z,83.62
2019-05-12T12:26:00.049Z,82.87
2019-05-12T12:28:35.951Z,82.75
2019-05-12T12:31:13.180Z,83.37
2019-05-12T12:33:49.139Z,83.37
2019-05-12T12:36:25.235Z,83.97
2019-05-12T12:39:01.118Z,83.95
2019-05-12T12:41:45.746Z,82.73
2019-05-12T12:44:16.174Z,82.79
2019-05-12T12:46:59.817Z,83.14
2019-05-12T12:49:29.660Z,82.93
2019-05-12T12:52:05.581Z,83.57
2019-05-12T12:54:43.726Z,83.26
2019-05-12T12:57:19.331Z,83.10
2019-05-12T12:59:55.272Z,82.91
2019-05-12T13:02:33.732Z,82.81
2019-05-12T13:05:08.778Z,83.16
2019-05-12T13:07:45.694Z,82.84
2019-05-12T13:10:21.618Z,83.41
2019-05-12T13:13:01.021Z,83.94
2019-05-12T13:15:35.124Z,83.37
2019-05-12T13:18:18.072Z,83.16
2019-05-12T13:20:48.629Z,83.38
2019-05-12T13:23:36.769Z,83.04
2019-05-12T13:26:04.295Z,82.95
2019-05-12T13:28:39.731Z,82.38
2019-05-12T13:31:16.102Z,82.03
2019-05-12T13:33:54.780Z,81.76
2019-05-12T13:36:35.478Z,81.91
2019-05-12T13:39:11.326Z,82.50
2019-05-12T13:41:50.323Z,82.41
2019-05-12T13:44:24.299Z,82.09
2019-05-12T13:47:00.219Z,81.99
2019-05-12T13:49:42.733Z,82.62
2019-05-12T13:52:14.121Z,82.58
2019-05-12T13:54:51.058Z,83.38
2019-05-12T13:57:26.958Z,83.30
2019-05-12T14:00:09.314Z,84.04
2019-05-12T14:02:40.497Z,82.98
2019-05-12T14:05:16.808Z,82.42
2019-05-12T14:07:55.469Z,82.14
2019-05-12T14:10:30.338Z,83.19
2019-05-12T14:13:06.214Z,83.86
2019-05-12T14:15:44.377Z,84.41
2019-05-12T14:18:20.811Z,85.08
2019-05-12T14:21:00.375Z,84.31
2019-05-12T14:23:34.439Z,84.97
2019-05-12T14:26:10.356Z,84.63
2019-05-12T14:28:49.622Z,85.72
2019-05-12T14:31:30.029Z,86.76
2019-05-12T14:34:01.504Z,86.98
2019-05-12T14:36:37.416Z,87.06
2019-05-12T14:39:13.561Z,86.82
2019-05-12T14:41:53.186Z,86.84
2019-05-12T14:44:27.081Z,87.75
2019-05-12T14:47:03.824Z,86.94
2019-05-12T14:49:39.863Z,86.74
2019-05-12T14:52:15.787Z,86.47
2019-05-12T14:54:54.177Z,86.28
2019-05-12T14:57:37.442Z,84.74
2019-05-12T15:00:11.153Z,84.30
2019-05-12T15:02:46.667Z,84.56
2019-05-12T15:05:25.318Z,84.23
2019-05-12T15:08:00.511Z,84.42
2019-05-12T15:10:36.547Z,83.37
2019-05-12T15:13:13.954Z,83.29
2019-05-12T15:15:54.905Z,82.30
2019-05-12T15:18:27.719Z,82.55
2019-05-12T15:21:03.710Z,81.64
2019-05-12T15:23:39.842Z,81.41
2019-05-12T15:26:19.711Z,81.36
2019-05-12T15:28:54.288Z,81.50
2019-05-12T15:31:30.362Z,81.32
2019-05-12T15:34:06.424Z,81.13
2019-05-12T15:36:43.540Z,81.05
2019-05-12T15:39:20.077Z,80.39
2019-05-12T15:41:56.892Z,79.88
2019-05-12T15:44:36.305Z,79.85
2019-05-12T15:47:11.229Z,79.76
2019-05-12T15:49:47.129Z,78.86
2019-05-12T15:52:24.681Z,78.87
2019-05-12T15:55:00.732Z,78.82
2019-05-12T15:57:36.633Z,78.76
2019-05-12T16:00:16.916Z,77.95
2019-05-12T16:02:53.451Z,78.20
2019-05-12T16:05:31.192Z,77.81
2019-05-12T16:08:07.274Z,77.79
2019-05-12T16:10:43.677Z,77.83
2019-05-12T16:13:19.547Z,77.67
2019-05-12T16:16:02.885Z,77.55
2019-05-12T16:18:34.473Z,77.70
2019-05-12T16:21:10.540Z,77.65
2019-05-12T16:23:47.413Z,76.81
2019-05-12T16:26:24.241Z,77.49
2019-05-12T16:29:05.302Z,77.68
2019-05-12T16:31:39.402Z,77.75
2019-05-12T16:34:15.470Z,78.02
2019-05-12T16:36:52.631Z,78.00
2019-05-12T16:39:30.440Z,77.81
2019-05-12T16:42:10.414Z,77.34
2019-05-12T16:44:44.467Z,77.01
2019-05-12T16:47:25.117Z,77.28
2019-05-12T16:49:57.952Z,76.68
2019-05-12T16:52:40.472Z,76.56
2019-05-12T16:55:12.303Z,76.89
2019-05-12T16:57:52.824Z,76.92
2019-05-12T17:00:25.879Z,76.59
2019-05-12T17:03:03.684Z,77.02
2019-05-12T17:05:39.543Z,76.17
2019-05-12T17:08:15.417Z,76.72
2019-05-12T17:11:00.942Z,76.67
2019-05-12T17:13:28.993Z,75.91
2019-05-12T17:16:04.859Z,75.91
2019-05-12T17:18:40.933Z,76.04
2019-05-12T17:21:17.312Z,76.37
2019-05-12T17:23:53.240Z,76.55
2019-05-12T17:26:29.515Z,76.97
2019-05-12T17:29:05.760Z,77.27
2019-05-12T17:31:41.663Z,77.21
2019-05-12T17:34:17.616Z,77.27
2019-05-12T17:36:58.545Z,77.53
2019-05-12T17:39:37.394Z,78.05
2019-05-12T17:42:14.809Z,78.36
2019-05-12T17:44:46.447Z,78.76
2019-05-12T17:47:25.787Z,79.09
2019-05-12T17:50:00.434Z,79.18
2019-05-12T17:52:37.875Z,79.27
2019-05-12T17:55:15.066Z,79.12
2019-05-12T17:57:56.335Z,79.26
2019-05-12T18:00:28.822Z,79.25
2019-05-12T18:03:17.509Z,78.68
2019-05-12T18:05:47.818Z,79.22
2019-05-12T18:08:24.168Z,79.24
2019-05-12T18:10:57.867Z,79.18
2019-05-12T18:13:34.514Z,79.21
2019-05-12T18:16:19.807Z,79.25
2019-05-12T18:18:49.055Z,79.31
2019-05-12T18:21:30.855Z,79.25
2019-05-12T18:24:08.770Z,79.08
2019-05-12T18:26:40.332Z,79.07
2019-05-12T18:29:16.246Z,78.86
2019-05-12T18:31:53.395Z,79.08
2019-05-12T18:34:29.824Z,79.03
2019-05-12T18:37:05.709Z,79.07
2019-05-12T18:39:43.629Z,79.13
2019-05-12T18:42:19.386Z,79.60
2019-05-12T18:44:55.337Z,79.49
2019-05-12T18:47:32.318Z,79.51
2019-05-12T18:50:09.100Z,79.61
2019-05-12T18:53:02.783Z,79.68
2019-05-12T18:55:40.580Z,79.69
2019-05-12T18:58:21.776Z,79.57
2019-05-12T19:00:59.535Z,79.51
2019-05-12T19:03:47.162Z,79.58
2019-05-12T19:06:16.929Z,79.56
2019-05-12T19:09:04.145Z,79.56
2019-05-12T19:11:41.936Z,79.39
2019-05-12T19:14:17.866Z,79.54
2019-05-12T19:16:53.885Z,79.55
2019-05-12T19:19:29.872Z,79.66
2019-05-12T19:22:09.535Z,79.30
2019-05-12T19:24:44.346Z,78.92
2019-05-12T19:27:21.325Z,78.84
2019-05-12T19:29:57.278Z,79.07
2019-05-12T19:32:34.032Z,79.41
2019-05-12T19:35:17.245Z,79.33
2019-05-12T19:37:48.844Z,79.43
2019-05-12T19:40:24.801Z,79.20
2019-05-12T19:43:03.396Z,79.04
2019-05-12T19:45:38.445Z,78.92
2019-05-12T19:48:24.006Z,78.76
2019-05-12T19:50:56.630Z,78.26
2019-05-12T19:53:29.756Z,78.17
2019-05-12T19:56:05.771Z,77.87
2019-05-12T19:58:43.842Z,77.45
2019-05-12T20:01:26.056Z,77.45
2019-05-12T20:03:58.342Z,77.61
2019-05-12T20:06:35.424Z,77.13
2019-05-12T20:09:14.268Z,77.21
2019-05-12T20:11:49.068Z,77.22
2019-05-12T20:14:25.033Z,77.23
2019-05-12T20:17:00.942Z,77.36
2019-05-12T20:19:37.856Z,77.43
2019-05-12T20:22:13.918Z,77.23
2019-05-12T20:24:49.871Z,77.36
2019-05-12T20:27:25.840Z,77.29
2019-05-12T20:30:08.882Z,77.15
2019-05-12T20:32:43.376Z,77.13
2019-05-12T20:35:18.819Z,77.17
2019-05-12T20:37:57.313Z,77.14
2019-05-12T20:40:37.701Z,77.29
2019-05-12T20:43:13.863Z,77.27
2019-05-12T20:45:47.870Z,77.10
2019-05-12T20:48:26.495Z,77.00
2019-05-12T20:51:03.515Z,76.95
2019-05-12T20:53:39.222Z,76.65
2019-05-12T20:56:20.094Z,76.64
2019-05-12T20:58:52.870Z,76.83
2019-05-12T21:01:30.213Z,76.69
2019-05-12T21:04:07.822Z,76.79
2019-05-12T21:06:44.028Z,76.75
2019-05-12T21:09:19.974Z,76.72
2019-05-12T21:11:55.929Z,76.66
2019-05-12T21:14:33.451Z,76.68
2019-05-12T21:17:14.548Z,76.26
2019-05-12T21:19:55.812Z,76.55
2019-05-12T21:22:24.989Z,76.93
2019-05-12T21:25:01.151Z,77.05
2019-05-12T21:27:37.095Z,77.14
2019-05-12T21:30:15.205Z,77.20
2019-05-12T21:32:56.373Z,77.25
2019-05-12T21:35:31.955Z,77.16
2019-05-12T21:38:06.564Z,76.92
2019-05-12T21:40:44.188Z,77.24
2019-05-12T21:43:20.218Z,77.14
2019-05-12T21:45:56.163Z,77.03
2019-05-12T21:48:33.994Z,77.02
2019-05-12T21:51:15.444Z,77.08
2019-05-12T21:53:50.504Z,76.90
2019-05-12T21:56:25.108Z,76.98
2019-05-12T21:59:01.073Z,77.22
2019-05-12T22:01:43.140Z,76.93
2019-05-12T22:04:14.723Z,77.14
2019-05-12T22:06:56.198Z,76.89
2019-05-12T22:09:46.906Z,76.92
2019-05-12T22:12:23.322Z,77.06
2019-05-12T22:14:58.523Z,77.25
2019-05-12T22:17:36.017Z,77.21
2019-05-12T22:20:17.962Z,77.11
2019-05-12T22:22:49.759Z,76.95
2019-05-12T22:25:25.725Z,77.11
2019-05-12T22:28:07.834Z,77.10
2019-05-12T22:30:39.371Z,77.29
2019-05-12T22:33:15.336Z,77.17
2019-05-12T22:36:04.726Z,76.93
2019-05-12T22:38:28.990Z,77.22
2019-05-12T22:41:07.396Z,77.05
2019-05-12T22:43:45.790Z,77.07
2019-05-12T22:46:23.304Z,76.95
2019-05-12T22:48:58.744Z,76.92
2019-05-12T22:51:34.700Z,76.77
2019-05-12T22:54:10.809Z,76.85
2019-05-12T22:56:49.475Z,77.14
2019-05-12T22:59:24.420Z,76.86
2019-05-12T23:02:01.507Z,76.78
2019-05-12T23:04:40.343Z,76.86
2019-05-12T23:07:19.055Z,77.29
2019-05-12T23:09:53.769Z,77.26
2019-05-12T23:12:29.930Z,77.34
2019-05-12T23:15:07.666Z,77.21
2019-05-12T23:17:45.327Z,77.23
2019-05-12T23:20:25.404Z,77.38
2019-05-12T23:22:59.285Z,77.26
2019-05-12T23:25:35.254Z,77.52
2019-05-12T23:28:11.197Z,77.51
2019-05-12T23:30:48.433Z,77.64
2019-05-12T23:33:31.952Z,77.55
2019-05-12T23:36:04.038Z,77.68
2019-05-12T23:38:40.154Z,77.58
2019-05-12T23:41:16.102Z,78.03
2019-05-12T23:43:53.743Z,77.95
2019-05-12T23:46:29.853Z,77.95
2019-05-12T23:49:05.812Z,77.88
2019-05-12T23:51:43.718Z,77.88
2019-05-12T23:54:19.478Z,77.99
2019-05-12T23:56:55.425Z,78.15
2019-05-12T23:59:33.460Z,77.95
